Terminal Aerodrome Forecast
Issued by NWS

Home | Current Version | Previous Version | Text Only | Print | Product List | Glossary On
Versions: 1 2 3 4 5 6 7 8 9 10 11 12
313
FTUS43 KILX 251726
TAFBMI
TAF
KBMI 251726Z 2518/2618 18007KT P6SM BKN060
     FM260000 18004KT P6SM FEW070 SCT250
     FM261500 24007KT P6SM SCT050 BKN200=

USA.gov is the U.S. government's official web portal to all federal, state and local government web resources and services.